Time;durP1;ratioP1;P1;durP2;ratioP2;P2;SDS_P1;SDS_P2;PMS_P1;PMS_P2;Temp;Humidity;BMP_temperature;BMP_pressure;BME280_temperature;BME280_humidity;BME280_pressure;Samples;Min_cycle;Max_cycle;Signal;HPM_P1;HPM_P2
2022/11/23 00:01:14;;;;;;;1.00;0.98;;;;;;;;;;5103486;27;43580;-60
2022/11/23 00:03:42;;;;;;;0.90;0.90;;;;;;;;;;5098549;27;45310;-60
2022/11/23 00:06:10;;;;;;;0.70;0.70;;;;;;;;;;5103922;27;43543;-61
2022/11/23 00:08:38;;;;;;;0.90;0.90;;;;;;;;;;5103086;27;43413;-61
2022/11/23 00:11:05;;;;;;;0.90;0.90;;;;;;;;;;5103609;27;43591;-61
2022/11/23 00:13:38;;;;;;;1.05;1.05;;;;;;;;;;5102907;27;43983;-60
2022/11/23 00:16:07;;;;;;;0.98;0.90;;;;;;;;;;5101859;27;43948;-60
2022/11/23 00:18:35;;;;;;;0.98;0.98;;;;;;;;;;5103210;27;43440;-61
2022/11/23 00:21:10;;;;;;;0.90;0.90;;;;;;;;;;5102912;27;43424;-61
2022/11/23 00:23:38;;;;;;;0.90;0.90;;;;;;;;;;5104074;27;44732;-60
2022/11/23 00:26:06;;;;;;;1.05;0.80;;;;;;;;;;5102837;27;43701;-61
2022/11/23 00:28:37;;;;;;;0.88;0.88;;;;;;;;;;5102730;27;43497;-61
2022/11/23 00:31:16;;;;;;;1.10;0.85;;;;;;;;;;5085884;27;43414;-61
2022/11/23 00:33:48;;;;;;;0.85;0.85;;;;;;;;;;5092423;27;44721;-61
2022/11/23 00:36:16;;;;;;;1.65;0.93;;;;;;;;;;5086947;27;44027;-61
2022/11/23 00:38:44;;;;;;;0.85;0.85;;;;;;;;;;5102695;27;43438;-61
2022/11/23 00:41:13;;;;;;;1.08;0.98;;;;;;;;;;5102104;27;43591;-61
2022/11/23 00:43:42;;;;;;;1.00;1.00;;;;;;;;;;5086935;27;43784;-61
2022/11/23 00:46:13;;;;;;;0.82;0.82;;;;;;;;;;5102751;27;43549;-61
2022/11/23 00:48:44;;;;;;;1.00;0.90;;;;;;;;;;5102527;27;43421;-61
2022/11/23 00:51:14;;;;;;;0.90;0.90;;;;;;;;;;5103471;27;43416;-61
2022/11/23 00:53:42;;;;;;;1.35;0.90;;;;;;;;;;5087537;27;44022;-60
2022/11/23 00:56:10;;;;;;;0.90;0.90;;;;;;;;;;5086600;27;43941;-61
2022/11/23 00:58:38;;;;;;;1.00;1.00;;;;;;;;;;5103017;27;43482;-61
2022/11/23 01:01:14;;;;;;;1.13;1.10;;;;;;;;;;5104103;27;43716;-61
2022/11/23 01:03:43;;;;;;;1.15;1.05;;;;;;;;;;5102426;27;43900;-60
2022/11/23 01:06:12;;;;;;;1.05;1.00;;;;;;;;;;5100286;27;43498;-61
2022/11/23 01:08:40;;;;;;;1.33;1.23;;;;;;;;;;5103173;27;43542;-61
2022/11/23 01:11:10;;;;;;;0.80;0.80;;;;;;;;;;5103201;27;43524;-61
2022/11/23 01:13:39;;;;;;;1.00;0.90;;;;;;;;;;5101891;27;44043;-61
2022/11/23 01:16:13;;;;;;;1.00;1.00;;;;;;;;;;5102247;27;43661;-61
2022/11/23 01:18:52;;;;;;;1.00;1.00;;;;;;;;;;5087977;27;43436;-61
2022/11/23 01:21:22;;;;;;;0.80;0.80;;;;;;;;;;5090529;27;43469;-61
2022/11/23 01:23:50;;;;;;;0.85;0.85;;;;;;;;;;5105529;27;43789;-60
2022/11/23 01:26:18;;;;;;;1.02;0.93;;;;;;;;;;5105086;27;43712;-61
2022/11/23 01:28:46;;;;;;;0.90;0.90;;;;;;;;;;5107377;27;43410;-61
2022/11/23 01:31:14;;;;;;;1.10;1.00;;;;;;;;;;5089806;27;43481;-61
2022/11/23 01:33:44;;;;;;;0.98;0.98;;;;;;;;;;5090438;27;44948;-61
2022/11/23 01:36:13;;;;;;;0.80;0.80;;;;;;;;;;5105272;27;43397;-61
2022/11/23 01:38:41;;;;;;;1.33;1.00;;;;;;;;;;5091641;27;43410;-61
2022/11/23 01:41:12;;;;;;;1.05;0.95;;;;;;;;;;5105753;27;43474;-61
2022/11/23 01:43:40;;;;;;;1.05;1.05;;;;;;;;;;5090915;27;45031;-61
2022/11/23 01:46:08;;;;;;;1.23;1.10;;;;;;;;;;5090222;27;44130;-61
2022/11/23 01:48:36;;;;;;;0.82;0.82;;;;;;;;;;5105765;27;43480;-60
2022/11/23 01:51:11;;;;;;;0.90;0.90;;;;;;;;;;5106319;27;43572;-61
2022/11/23 01:53:39;;;;;;;1.02;0.90;;;;;;;;;;5105167;27;44998;-61
2022/11/23 01:56:08;;;;;;;0.80;0.80;;;;;;;;;;5090658;27;43491;-61
2022/11/23 01:58:39;;;;;;;0.90;0.90;;;;;;;;;;5105378;27;43464;-61
2022/11/23 02:01:07;;;;;;;1.05;0.90;;;;;;;;;;5090282;27;43566;-60
2022/11/23 02:03:37;;;;;;;1.08;1.08;;;;;;;;;;5104171;27;43880;-60
2022/11/23 02:06:11;;;;;;;1.00;1.00;;;;;;;;;;5089580;27;43467;-60
2022/11/23 02:08:39;;;;;;;1.20;1.10;;;;;;;;;;5105232;27;43439;-61
2022/11/23 02:11:07;;;;;;;1.02;1.00;;;;;;;;;;5090006;27;43637;-61
2022/11/23 02:13:35;;;;;;;1.02;1.02;;;;;;;;;;5104472;27;43806;-60
2022/11/23 02:16:03;;;;;;;1.08;1.08;;;;;;;;;;5106077;27;43713;-61
2022/11/23 02:18:32;;;;;;;1.10;1.00;;;;;;;;;;5105055;27;43368;-61
2022/11/23 02:21:01;;;;;;;0.95;0.95;;;;;;;;;;5104248;27;43468;-61
2022/11/23 02:23:48;;;;;;;1.30;1.20;;;;;;;;;;5104086;27;43821;-61
2022/11/23 02:26:17;;;;;;;1.90;1.05;;;;;;;;;;5102997;27;43423;-61
2022/11/23 02:28:46;;;;;;;0.82;0.82;;;;;;;;;;5104778;27;43399;-61
2022/11/23 02:31:14;;;;;;;0.80;0.80;;;;;;;;;;5086039;27;43570;-61
2022/11/23 02:33:42;;;;;;;1.00;0.80;;;;;;;;;;5090068;27;44984;-61
2022/11/23 02:36:25;;;;;;;1.02;0.98;;;;;;;;;;5107584;27;43446;-60
2022/11/23 02:38:53;;;;;;;0.85;0.85;;;;;;;;;;5086339;27;43412;-61
2022/11/23 02:41:21;;;;;;;1.20;1.10;;;;;;;;;;5089107;27;43613;-61
2022/11/23 02:43:51;;;;;;;1.40;0.90;;;;;;;;;;5104506;27;44038;-61
2022/11/23 02:46:18;;;;;;;1.10;1.10;;;;;;;;;;5103865;27;44263;-61
2022/11/23 02:48:49;;;;;;;0.98;0.90;;;;;;;;;;5088739;27;43517;-61
2022/11/23 02:51:16;;;;;;;1.33;1.02;;;;;;;;;;5105249;27;44098;-61
2022/11/23 02:53:45;;;;;;;1.25;1.13;;;;;;;;;;5104249;27;43803;-60
2022/11/23 02:56:12;;;;;;;0.95;0.95;;;;;;;;;;5103578;27;43962;-60
2022/11/23 02:58:40;;;;;;;1.00;1.00;;;;;;;;;;5104733;27;43544;-61
2022/11/23 03:01:08;;;;;;;1.10;1.05;;;;;;;;;;5104074;27;43598;-61
2022/11/23 03:03:35;;;;;;;0.80;0.80;;;;;;;;;;5103541;27;43900;-60
2022/11/23 03:06:03;;;;;;;0.80;0.80;;;;;;;;;;5089410;27;43477;-61
2022/11/23 03:08:32;;;;;;;1.38;1.00;;;;;;;;;;5104086;27;43412;-61
2022/11/23 03:11:01;;;;;;;0.80;0.80;;;;;;;;;;5089644;27;43550;-61
2022/11/23 03:13:30;;;;;;;1.20;1.15;;;;;;;;;;5088830;27;43822;-60
2022/11/23 03:15:59;;;;;;;0.85;0.85;;;;;;;;;;5088299;27;43482;-61
2022/11/23 03:18:27;;;;;;;0.95;0.95;;;;;;;;;;5083556;27;43445;-61
2022/11/23 03:20:54;;;;;;;0.88;0.80;;;;;;;;;;5090175;27;43544;-61
2022/11/23 03:23:22;;;;;;;0.77;0.77;;;;;;;;;;5087988;27;44028;-61
2022/11/23 03:25:57;;;;;;;0.90;0.90;;;;;;;;;;5088839;27;43904;-61
2022/11/23 03:28:27;;;;;;;0.93;0.82;;;;;;;;;;5088837;27;43377;-61
2022/11/23 03:30:56;;;;;;;1.05;0.93;;;;;;;;;;5088489;27;43463;-61
2022/11/23 03:33:24;;;;;;;1.23;1.13;;;;;;;;;;5080401;27;44069;-60
2022/11/23 03:35:52;;;;;;;0.82;0.82;;;;;;;;;;5076975;27;43771;-61
2022/11/23 03:38:25;;;;;;;1.40;1.10;;;;;;;;;;5088831;27;43430;-61
2022/11/23 03:40:53;;;;;;;1.17;1.05;;;;;;;;;;5088973;27;43648;-61
2022/11/23 03:43:26;;;;;;;0.80;0.80;;;;;;;;;;5086937;27;44650;-60
2022/11/23 03:45:53;;;;;;;0.70;0.70;;;;;;;;;;5088387;27;43446;-61
2022/11/23 03:48:22;;;;;;;0.80;0.80;;;;;;;;;;5088169;27;43507;-60
2022/11/23 03:50:50;;;;;;;1.00;1.00;;;;;;;;;;5089270;27;43628;-61
2022/11/23 03:53:17;;;;;;;1.13;1.02;;;;;;;;;;5102366;27;44941;-61
2022/11/23 03:55:46;;;;;;;1.05;1.00;;;;;;;;;;5088523;27;43979;-61
2022/11/23 03:58:14;;;;;;;0.93;0.90;;;;;;;;;;5088180;27;43615;-61
2022/11/23 04:00:42;;;;;;;0.98;0.60;;;;;;;;;;5088898;27;43453;-61
2022/11/23 04:03:12;;;;;;;0.63;0.63;;;;;;;;;;5087798;27;44084;-61
2022/11/23 04:05:59;;;;;;;0.60;0.60;;;;;;;;;;5103944;27;43960;-61
2022/11/23 04:08:51;;;;;;;1.05;0.90;;;;;;;;;;5074792;27;43378;-61
2022/11/23 04:11:58;;;;;;;1.30;0.95;;;;;;;;;;5087834;27;43449;-61
2022/11/23 04:14:26;;;;;;;1.23;1.13;;;;;;;;;;5087542;27;44947;-61
2022/11/23 04:16:54;;;;;;;1.08;1.00;;;;;;;;;;5088074;27;43673;-61
2022/11/23 04:19:21;;;;;;;0.73;0.73;;;;;;;;;;5086608;27;43403;-61
2022/11/23 04:21:49;;;;;;;1.08;1.02;;;;;;;;;;5089482;27;43566;-61
2022/11/23 04:24:18;;;;;;;0.88;0.88;;;;;;;;;;5087586;27;44960;-61
2022/11/23 04:26:46;;;;;;;0.98;0.80;;;;;;;;;;5087310;27;43970;-61
2022/11/23 04:29:14;;;;;;;0.93;0.93;;;;;;;;;;5102295;27;43426;-60
2022/11/23 04:31:47;;;;;;;1.38;0.80;;;;;;;;;;5085957;27;43382;-61
2022/11/23 04:34:17;;;;;;;0.70;0.70;;;;;;;;;;5086780;27;44039;-61
2022/11/23 04:36:47;;;;;;;1.10;1.02;;;;;;;;;;5084930;27;43805;-61
2022/11/23 04:39:14;;;;;;;1.08;0.82;;;;;;;;;;5087792;27;43464;-61
2022/11/23 04:42:01;;;;;;;0.90;0.90;;;;;;;;;;5086724;27;43482;-61
2022/11/23 04:44:30;;;;;;;2.25;1.15;;;;;;;;;;5087341;27;44740;-60
2022/11/23 04:47:02;;;;;;;0.90;0.85;;;;;;;;;;5087650;27;43416;-61
2022/11/23 04:49:30;;;;;;;1.65;1.23;;;;;;;;;;5086068;27;43529;-61
2022/11/23 04:51:59;;;;;;;0.70;0.70;;;;;;;;;;5088074;27;43624;-61
2022/11/23 04:54:32;;;;;;;0.98;0.80;;;;;;;;;;5073353;27;44003;-61
2022/11/23 04:57:02;;;;;;;1.17;0.90;;;;;;;;;;5092172;27;43936;-61
2022/11/23 04:59:30;;;;;;;0.90;0.90;;;;;;;;;;5094492;27;43462;-61
2022/11/23 05:01:58;;;;;;;1.10;0.90;;;;;;;;;;5106127;27;43414;-61
2022/11/23 05:04:47;;;;;;;0.70;0.70;;;;;;;;;;5091377;27;44857;-61
2022/11/23 05:07:16;;;;;;;1.00;1.00;;;;;;;;;;5105017;27;43700;-61
2022/11/23 05:09:50;;;;;;;1.13;1.02;;;;;;;;;;5090704;27;43362;-61
2022/11/23 05:12:20;;;;;;;1.00;1.00;;;;;;;;;;5090686;27;43447;-61
2022/11/23 05:14:48;;;;;;;1.20;1.10;;;;;;;;;;5106916;27;44938;-61
2022/11/23 05:17:21;;;;;;;1.17;1.08;;;;;;;;;;5090074;27;43845;-61
2022/11/23 05:19:51;;;;;;;1.05;0.90;;;;;;;;;;5090913;27;43449;-61
2022/11/23 05:22:19;;;;;;;0.82;0.82;;;;;;;;;;5090179;27;43605;-61
2022/11/23 05:24:47;;;;;;;0.90;0.90;;;;;;;;;;5091101;27;44695;-61
2022/11/23 05:27:18;;;;;;;1.02;0.88;;;;;;;;;;5089744;27;43454;-61
2022/11/23 05:29:46;;;;;;;1.02;0.88;;;;;;;;;;5105482;27;43481;-61
2022/11/23 05:32:14;;;;;;;0.88;0.80;;;;;;;;;;5090148;27;43506;-60
2022/11/23 05:34:42;;;;;;;1.00;1.00;;;;;;;;;;5091320;27;43810;-61
2022/11/23 05:37:12;;;;;;;0.77;0.77;;;;;;;;;;5089142;27;44013;-61
2022/11/23 05:39:49;;;;;;;1.73;1.00;;;;;;;;;;5090861;27;43338;-61
2022/11/23 05:42:18;;;;;;;0.90;0.90;;;;;;;;;;5090971;27;43590;-61
2022/11/23 05:44:47;;;;;;;0.90;0.90;;;;;;;;;;5090124;27;43769;-61
2022/11/23 05:47:20;;;;;;;1.17;1.13;;;;;;;;;;5089164;27;43516;-60
2022/11/23 05:49:49;;;;;;;0.80;0.80;;;;;;;;;;5100371;27;43369;-61
2022/11/23 05:52:20;;;;;;;1.50;1.40;;;;;;;;;;5089857;27;43638;-61
2022/11/23 05:54:48;;;;;;;1.50;1.00;;;;;;;;;;5090543;27;44768;-60
2022/11/23 05:57:16;;;;;;;1.05;0.98;;;;;;;;;;5089050;27;43912;-61
2022/11/23 05:59:45;;;;;;;0.93;0.90;;;;;;;;;;5089989;27;43475;-61
2022/11/23 06:02:17;;;;;;;1.00;0.90;;;;;;;;;;5086603;27;43541;-61
2022/11/23 06:04:47;;;;;;;0.80;0.80;;;;;;;;;;5081351;27;45002;-61
2022/11/23 06:07:19;;;;;;;1.30;1.20;;;;;;;;;;5081795;27;43430;-61
2022/11/23 06:10:11;;;;;;;1.13;1.08;;;;;;;;;;5086081;27;43445;-61
2022/11/23 06:12:44;;;;;;;1.15;1.05;;;;;;;;;;5092719;27;43419;-61
2022/11/23 06:15:14;;;;;;;1.10;1.10;;;;;;;;;;5088160;27;44980;-60
2022/11/23 06:17:42;;;;;;;1.33;1.20;;;;;;;;;;5087021;27;43469;-61
2022/11/23 06:20:14;;;;;;;1.10;1.00;;;;;;;;;;5089074;27;43478;-61
2022/11/23 06:22:52;;;;;;;1.40;1.30;;;;;;;;;;5087353;27;43538;-61
2022/11/23 06:25:21;;;;;;;1.25;1.15;;;;;;;;;;5089203;27;43802;-61
2022/11/23 06:28:04;;;;;;;0.88;0.88;;;;;;;;;;5085932;27;43460;-61
2022/11/23 06:30:40;;;;;;;1.25;1.15;;;;;;;;;;5086171;27;43394;-61
2022/11/23 06:33:08;;;;;;;1.30;1.20;;;;;;;;;;5082453;27;43575;-61
2022/11/23 06:35:58;;;;;;;1.13;1.02;;;;;;;;;;5086250;27;44825;-61
2022/11/23 06:38:31;;;;;;;1.33;1.23;;;;;;;;;;5084875;27;43457;-61
2022/11/23 06:41:06;;;;;;;1.25;1.20;;;;;;;;;;5087334;27;43475;-61
2022/11/23 06:43:33;;;;;;;1.00;1.00;;;;;;;;;;5081878;27;43631;-60
2022/11/23 06:46:05;;;;;;;1.30;1.20;;;;;;;;;;5089179;27;44052;-61
2022/11/23 06:48:37;;;;;;;1.20;1.20;;;;;;;;;;5088255;27;44306;-61
2022/11/23 06:51:06;;;;;;;1.88;1.40;;;;;;;;;;5087441;27;43467;-60
2022/11/23 06:53:36;;;;;;;1.50;1.30;;;;;;;;;;5091865;27;43579;-61
2022/11/23 06:56:06;;;;;;;1.50;1.40;;;;;;;;;;5092060;27;44820;-61
2022/11/23 06:58:35;;;;;;;1.70;1.60;;;;;;;;;;5091124;27;43417;-61
2022/11/23 07:01:08;;;;;;;1.50;1.40;;;;;;;;;;5091996;27;43436;-61
2022/11/23 07:03:46;;;;;;;2.38;1.30;;;;;;;;;;5092133;27;43426;-61
2022/11/23 07:06:23;;;;;;;1.60;1.42;;;;;;;;;;5086871;27;44801;-61
2022/11/23 07:08:54;;;;;;;1.58;1.48;;;;;;;;;;5088075;27;43984;-61
2022/11/23 07:11:39;;;;;;;1.50;1.40;;;;;;;;;;5091087;27;44063;-61
2022/11/23 07:14:06;;;;;;;1.40;1.30;;;;;;;;;;5091201;27;43564;-61
2022/11/23 07:16:37;;;;;;;1.37;1.20;;;;;;;;;;5080016;27;44963;-61
2022/11/23 07:19:04;;;;;;;1.63;1.50;;;;;;;;;;5089588;27;44151;-61
2022/11/23 07:21:32;;;;;;;1.48;1.38;;;;;;;;;;5099054;27;43427;-61
2022/11/23 07:24:00;;;;;;;1.80;1.70;;;;;;;;;;5096419;27;43816;-61
2022/11/23 07:26:28;;;;;;;1.30;1.20;;;;;;;;;;5087169;27;44918;-61
2022/11/23 07:28:56;;;;;;;1.38;1.33;;;;;;;;;;5091962;27;43939;-62
2022/11/23 07:31:24;;;;;;;2.10;1.63;;;;;;;;;;5085112;27;43463;-62
2022/11/23 07:33:52;;;;;;;2.20;1.58;;;;;;;;;;5088501;27;43517;-62
2022/11/23 07:36:21;;;;;;;1.35;1.25;;;;;;;;;;5090327;27;44932;-61
2022/11/23 07:38:49;;;;;;;1.73;1.50;;;;;;;;;;5082188;27;43713;-61
2022/11/23 07:41:19;;;;;;;2.72;1.25;;;;;;;;;;5091133;27;43589;-61
2022/11/23 07:44:10;;;;;;;3.33;1.75;;;;;;;;;;5095562;27;43521;-61
2022/11/23 07:46:37;;;;;;;2.50;1.52;;;;;;;;;;5103521;27;44774;-61
2022/11/23 07:49:05;;;;;;;1.48;1.38;;;;;;;;;;5102132;27;43800;-60
2022/11/23 07:51:33;;;;;;;1.50;1.40;;;;;;;;;;5098363;27;43425;-61
2022/11/23 07:54:00;;;;;;;1.70;1.55;;;;;;;;;;5104358;27;44050;-61
2022/11/23 07:56:28;;;;;;;1.40;1.30;;;;;;;;;;5102371;27;43748;-61
2022/11/23 07:58:56;;;;;;;1.20;1.20;;;;;;;;;;5102464;27;43449;-61
2022/11/23 08:01:23;;;;;;;1.85;1.38;;;;;;;;;;5102697;27;43407;-61
2022/11/23 08:03:51;;;;;;;1.52;1.40;;;;;;;;;;5103889;27;43605;-61
2022/11/23 08:06:19;;;;;;;1.13;1.13;;;;;;;;;;5102355;27;43793;-61
2022/11/23 08:08:46;;;;;;;1.40;1.30;;;;;;;;;;5102720;27;43550;-61
2022/11/23 08:11:16;;;;;;;1.58;1.48;;;;;;;;;;5099983;27;44025;-61
2022/11/23 08:13:44;;;;;;;1.67;1.52;;;;;;;;;;5104171;27;43446;-61
2022/11/23 08:16:11;;;;;;;1.52;1.38;;;;;;;;;;5098448;27;45013;-62
2022/11/23 08:18:39;;;;;;;2.47;1.42;;;;;;;;;;5097907;27;43749;-61
2022/11/23 08:21:07;;;;;;;2.17;1.30;;;;;;;;;;5105147;27;43467;-61
2022/11/23 08:23:34;;;;;;;3.40;1.60;;;;;;;;;;5101924;27;43533;-61
2022/11/23 08:26:03;;;;;;;1.42;1.33;;;;;;;;;;5102830;27;43934;-61
2022/11/23 08:28:38;;;;;;;1.20;1.02;;;;;;;;;;5110091;27;43483;-61
2022/11/23 08:31:07;;;;;;;1.13;1.08;;;;;;;;;;5108945;27;43422;-61
2022/11/23 08:33:35;;;;;;;3.58;1.20;;;;;;;;;;5113895;27;43593;-61
2022/11/23 08:36:04;;;;;;;1.45;1.20;;;;;;;;;;5105203;27;44016;-61
2022/11/23 08:38:32;;;;;;;1.30;1.20;;;;;;;;;;5110183;27;43518;-61
2022/11/23 08:41:01;;;;;;;3.30;1.20;;;;;;;;;;5112635;27;43516;-61
2022/11/23 08:43:28;;;;;;;1.20;1.10;;;;;;;;;;5112654;27;43714;-61
2022/11/23 08:45:57;;;;;;;1.52;1.10;;;;;;;;;;5110075;27;44694;-61
2022/11/23 08:48:32;;;;;;;1.35;1.20;;;;;;;;;;5112642;27;44154;-61
2022/11/23 08:50:59;;;;;;;2.40;1.23;;;;;;;;;;5111001;27;43421;-58
2022/11/23 08:53:27;;;;;;;2.08;1.20;;;;;;;;;;5112156;27;43640;-58
2022/11/23 08:55:55;;;;;;;3.67;1.40;;;;;;;;;;5107393;27;44038;-59
2022/11/23 08:58:22;;;;;;;1.40;1.30;;;;;;;;;;5112591;27;44003;-58
2022/11/23 09:00:50;;;;;;;1.88;1.17;;;;;;;;;;5108976;27;43459;-58
2022/11/23 09:03:18;;;;;;;1.85;1.10;;;;;;;;;;5103361;27;43576;-58
2022/11/23 09:05:45;;;;;;;4.82;1.40;;;;;;;;;;5113093;27;44783;-60
2022/11/23 09:08:15;;;;;;;0.98;0.98;;;;;;;;;;5108328;27;43576;-60
2022/11/23 09:10:42;;;;;;;2.67;1.30;;;;;;;;;;5104185;27;43462;-59
2022/11/23 09:13:10;;;;;;;1.13;1.00;;;;;;;;;;5111419;27;43567;-59
2022/11/23 09:15:38;;;;;;;3.78;1.50;;;;;;;;;;5086302;27;43872;-60
2022/11/23 09:18:06;;;;;;;1.20;1.15;;;;;;;;;;5108157;27;43743;-59
2022/11/23 09:20:33;;;;;;;1.48;1.30;;;;;;;;;;5107416;27;43452;-59
2022/11/23 09:23:01;;;;;;;3.28;1.20;;;;;;;;;;5107126;27;43432;-59
2022/11/23 09:25:29;;;;;;;1.20;1.10;;;;;;;;;;5111920;27;44885;-60
2022/11/23 09:27:58;;;;;;;1.35;1.02;;;;;;;;;;5109502;27;43474;-60
2022/11/23 09:30:26;;;;;;;0.95;0.88;;;;;;;;;;5112380;27;43546;-60
2022/11/23 09:32:57;;;;;;;1.55;1.10;;;;;;;;;;5108286;27;43612;-59
2022/11/23 09:35:25;;;;;;;1.33;1.08;;;;;;;;;;5096929;27;46222;-60
2022/11/23 09:37:57;;;;;;;1.92;1.20;;;;;;;;;;5115144;27;44022;-60
2022/11/23 09:40:35;;;;;;;1.58;1.00;;;;;;;;;;5105940;27;43495;-61
2022/11/23 09:43:06;;;;;;;1.23;1.00;;;;;;;;;;5107533;27;43475;-60
2022/11/23 09:45:43;;;;;;;2.53;1.20;;;;;;;;;;5110748;27;43891;-58
2022/11/23 09:48:13;;;;;;;2.25;1.40;;;;;;;;;;5108982;27;43900;-58
2022/11/23 09:50:48;;;;;;;1.55;1.17;;;;;;;;;;5099185;27;43457;-58
2022/11/23 09:53:20;;;;;;;3.03;1.38;;;;;;;;;;5109936;27;43491;-58
2022/11/23 09:55:49;;;;;;;1.77;1.08;;;;;;;;;;5105229;27;44379;-58
2022/11/23 09:58:19;;;;;;;3.15;1.00;;;;;;;;;;5105106;27;43474;-58
2022/11/23 10:00:46;;;;;;;4.80;1.30;;;;;;;;;;5101743;27;43587;-58
2022/11/23 10:03:15;;;;;;;3.28;1.30;;;;;;;;;;5109680;27;43490;-57
2022/11/23 10:05:47;;;;;;;4.00;1.10;;;;;;;;;;5110465;27;44006;-58
2022/11/23 10:27:50;;;;;;;1.75;1.10;;;;;;;;;;5101388;27;43552;-57
2022/11/23 10:30:19;;;;;;;9.43;1.35;;;;;;;;;;5106914;27;43410;-57
2022/11/23 10:32:47;;;;;;;2.20;1.30;;;;;;;;;;5106681;27;43608;-58
2022/11/23 10:35:16;;;;;;;2.42;1.20;;;;;;;;;;5106571;27;43895;-58
2022/11/23 10:37:43;;;;;;;3.97;1.00;;;;;;;;;;5108450;27;43376;-57
2022/11/23 10:40:11;;;;;;;1.67;1.20;;;;;;;;;;5111241;27;43451;-58
2022/11/23 10:42:44;;;;;;;3.40;1.10;;;;;;;;;;5100061;27;43578;-58
2022/11/23 10:45:20;;;;;;;1.85;1.13;;;;;;;;;;5103520;27;44813;-58
2022/11/23 10:47:49;;;;;;;2.22;1.30;;;;;;;;;;5110566;27;43500;-58
2022/11/23 10:50:22;;;;;;;3.88;1.30;;;;;;;;;;5104743;27;43526;-58
2022/11/23 10:52:51;;;;;;;2.97;1.20;;;;;;;;;;5110214;27;43492;-58
2022/11/23 10:55:23;;;;;;;2.70;1.00;;;;;;;;;;5107259;27;43987;-58
2022/11/23 10:57:51;;;;;;;3.28;1.25;;;;;;;;;;5105014;27;44140;-58
2022/11/23 11:00:21;;;;;;;2.13;1.20;;;;;;;;;;5104067;27;43917;-58
2022/11/23 11:02:57;;;;;;;2.42;1.17;;;;;;;;;;5085656;27;43362;-58
2022/11/23 11:05:34;;;;;;;1.85;1.27;;;;;;;;;;5099702;27;44105;-58
2022/11/23 11:08:25;;;;;;;3.70;1.60;;;;;;;;;;5101355;27;43436;-58
2022/11/23 11:11:01;;;;;;;2.88;1.27;;;;;;;;;;5104724;27;43402;-59
2022/11/23 11:13:31;;;;;;;1.40;1.30;;;;;;;;;;5098404;27;43576;-58
2022/11/23 11:16:16;;;;;;;1.63;1.08;;;;;;;;;;5087063;27;44482;-58
2022/11/23 11:18:44;;;;;;;2.25;1.17;;;;;;;;;;5111249;27;43484;-58
2022/11/23 11:21:41;;;;;;;1.95;1.05;;;;;;;;;;5113630;27;43954;-58
2022/11/23 11:24:15;;;;;;;1.92;1.30;;;;;;;;;;5078107;27;43453;-57
2022/11/23 11:26:48;;;;;;;3.05;1.08;;;;;;;;;;5108265;27;44056;-57
2022/11/23 11:29:31;;;;;;;2.72;1.40;;;;;;;;;;5108120;27;43481;-57
2022/11/23 11:32:17;;;;;;;1.67;1.15;;;;;;;;;;5103065;27;43461;-58
2022/11/23 11:35:04;;;;;;;2.92;1.50;;;;;;;;;;5098776;27;43541;-58
2022/11/23 11:37:36;;;;;;;1.70;1.23;;;;;;;;;;5096555;27;43656;-58
2022/11/23 11:40:10;;;;;;;2.65;1.40;;;;;;;;;;5102155;27;44086;-58
2022/11/23 11:42:43;;;;;;;3.20;1.50;;;;;;;;;;5094148;27;43439;-58
2022/11/23 11:45:20;;;;;;;2.47;1.30;;;;;;;;;;5103641;27;43491;-58
2022/11/23 11:47:54;;;;;;;2.75;1.38;;;;;;;;;;5098700;27;45375;-58
2022/11/23 11:50:22;;;;;;;2.90;1.58;;;;;;;;;;5096022;27;43442;-58
2022/11/23 11:53:18;;;;;;;1.67;1.42;;;;;;;;;;5098305;27;43442;-58
2022/11/23 11:55:54;;;;;;;2.42;1.20;;;;;;;;;;5102096;27;43901;-57
2022/11/23 11:58:24;;;;;;;1.33;1.10;;;;;;;;;;5091737;27;44698;-58
2022/11/23 12:01:13;;;;;;;2.10;1.20;;;;;;;;;;5103524;27;43713;-58
2022/11/23 12:03:43;;;;;;;1.77;1.23;;;;;;;;;;5101349;27;43427;-58
2022/11/23 12:06:17;;;;;;;3.33;1.83;;;;;;;;;;5102254;27;43509;-57
2022/11/23 12:09:09;;;;;;;2.35;1.25;;;;;;;;;;5100603;27;44721;-58
2022/11/23 12:11:36;;;;;;;3.15;1.48;;;;;;;;;;5099666;27;43440;-58
2022/11/23 12:14:06;;;;;;;2.45;1.38;;;;;;;;;;5101767;27;43489;-58
2022/11/23 12:16:52;;;;;;;3.15;1.65;;;;;;;;;;5098874;27;43534;-58
2022/11/23 12:20:00;;;;;;;2.78;1.35;;;;;;;;;;5099425;27;44948;-58
2022/11/23 12:22:34;;;;;;;2.63;1.50;;;;;;;;;;5107882;27;43376;-58
2022/11/23 12:25:15;;;;;;;2.15;1.38;;;;;;;;;;5105731;27;43399;-58
2022/11/23 12:28:01;;;;;;;3.42;1.42;;;;;;;;;;5101337;27;43546;-57
2022/11/23 12:30:33;;;;;;;2.33;1.30;;;;;;;;;;5100814;27;44994;-58
2022/11/23 12:33:07;;;;;;;2.55;1.40;;;;;;;;;;5100855;27;43727;-58
2022/11/23 12:35:37;;;;;;;2.45;1.20;;;;;;;;;;5108404;27;43505;-58
2022/11/23 12:38:23;;;;;;;2.28;1.30;;;;;;;;;;5106237;27;43538;-58
2022/11/23 12:40:51;;;;;;;1.73;1.13;;;;;;;;;;5107862;27;44062;-58
2022/11/23 12:43:24;;;;;;;2.53;1.50;;;;;;;;;;5108763;27;43595;-57
2022/11/23 12:46:04;;;;;;;1.98;1.10;;;;;;;;;;5103132;27;43476;-58
2022/11/23 12:48:58;;;;;;;2.25;1.45;;;;;;;;;;5084432;27;43479;-58
2022/11/23 12:51:33;;;;;;;2.80;1.40;;;;;;;;;;5062486;27;45059;-57
2022/11/23 12:54:31;;;;;;;2.13;1.33;;;;;;;;;;5105539;27;43898;-58
2022/11/23 12:56:59;;;;;;;2.53;1.42;;;;;;;;;;5107564;27;43472;-58
2022/11/23 12:59:33;;;;;;;2.35;1.20;;;;;;;;;;5085976;27;43600;-58
2022/11/23 13:02:02;;;;;;;1.73;1.27;;;;;;;;;;5102907;27;43970;-55
2022/11/23 13:04:49;;;;;;;2.35;1.25;;;;;;;;;;5108840;27;43688;-58
2022/11/23 13:07:35;;;;;;;2.13;1.20;;;;;;;;;;5103303;27;43452;-58
2022/11/23 13:10:23;;;;;;;1.75;1.30;;;;;;;;;;5111458;27;43472;-58
2022/11/23 13:13:09;;;;;;;2.30;1.48;;;;;;;;;;5104044;27;44209;-58
2022/11/23 13:15:48;;;;;;;1.85;1.50;;;;;;;;;;5101827;27;43486;-58
2022/11/23 13:18:16;;;;;;;2.63;1.33;;;;;;;;;;5106481;27;43494;-58
2022/11/23 13:21:10;;;;;;;1.75;1.20;;;;;;;;;;5107594;27;43485;-58
2022/11/23 13:23:39;;;;;;;1.80;1.35;;;;;;;;;;5111284;27;44220;-58
2022/11/23 13:26:14;;;;;;;2.25;1.33;;;;;;;;;;5101043;27;43447;-58
2022/11/23 13:28:42;;;;;;;2.45;1.45;;;;;;;;;;5108820;27;43572;-58
2022/11/23 13:31:12;;;;;;;3.05;1.40;;;;;;;;;;5107264;27;43490;-58
2022/11/23 13:33:44;;;;;;;2.00;1.05;;;;;;;;;;5109886;27;44055;-58
2022/11/23 13:36:32;;;;;;;2.23;1.37;;;;;;;;;;5109009;27;43524;-58
2022/11/23 13:39:40;;;;;;;3.97;1.65;;;;;;;;;;5105804;27;43611;-58
2022/11/23 13:42:10;;;;;;;2.53;1.55;;;;;;;;;;5081138;27;43486;-58
2022/11/23 13:44:37;;;;;;;2.60;1.60;;;;;;;;;;5110631;27;43893;-58
2022/11/23 13:47:17;;;;;;;3.38;1.50;;;;;;;;;;5110910;27;43436;-58
2022/11/23 13:49:52;;;;;;;2.20;1.17;;;;;;;;;;5059035;28;43473;-58
2022/11/23 13:52:22;;;;;;;4.25;1.80;;;;;;;;;;5071565;28;43422;-58
2022/11/23 13:55:08;;;;;;;3.08;1.30;;;;;;;;;;5060802;28;44151;-58
2022/11/23 13:57:41;;;;;;;3.17;1.40;;;;;;;;;;5072689;28;43436;-58
2022/11/23 14:00:27;;;;;;;3.10;1.50;;;;;;;;;;5072128;28;43521;-58
2022/11/23 14:03:14;;;;;;;4.15;1.60;;;;;;;;;;5073897;28;43402;-60
2022/11/23 14:05:48;;;;;;;2.53;1.40;;;;;;;;;;5082002;28;45033;-60
2022/11/23 14:08:18;;;;;;;3.97;1.10;;;;;;;;;;5054184;28;43418;-60
2022/11/23 14:10:45;;;;;;;2.28;1.48;;;;;;;;;;5073042;28;43394;-60
2022/11/23 14:13:18;;;;;;;2.42;1.13;;;;;;;;;;5075941;28;43608;-60
2022/11/23 14:15:56;;;;;;;2.53;1.40;;;;;;;;;;5074790;28;43853;-60
2022/11/23 14:18:39;;;;;;;2.72;1.15;;;;;;;;;;5070341;28;43424;-60
2022/11/23 14:21:30;;;;;;;3.22;1.30;;;;;;;;;;5080526;28;43383;-60
2022/11/23 14:24:21;;;;;;;3.58;1.60;;;;;;;;;;5064481;28;43520;-60
2022/11/23 14:26:51;;;;;;;2.67;1.38;;;;;;;;;;5066121;27;44058;-58
2022/11/23 14:29:28;;;;;;;3.03;1.50;;;;;;;;;;5071851;28;43464;-60
2022/11/23 14:32:14;;;;;;;2.88;1.40;;;;;;;;;;5072347;28;44128;-60
2022/11/23 14:35:21;;;;;;;2.90;1.17;;;;;;;;;;5078255;28;43451;-60
2022/11/23 14:37:57;;;;;;;2.35;1.50;;;;;;;;;;5020017;28;44076;-60
2022/11/23 14:40:26;;;;;;;2.47;1.40;;;;;;;;;;5018721;28;43462;-60
2022/11/23 14:42:57;;;;;;;2.35;1.45;;;;;;;;;;5044403;28;43498;-60
2022/11/23 14:45:28;;;;;;;3.80;1.35;;;;;;;;;;5082271;28;43513;-60
2022/11/23 14:47:55;;;;;;;2.60;1.30;;;;;;;;;;5080741;27;44064;-60
2022/11/23 14:50:30;;;;;;;2.85;1.10;;;;;;;;;;5096287;27;43461;-59
2022/11/23 14:52:58;;;;;;;2.92;1.45;;;;;;;;;;5083233;27;43407;-60
2022/11/23 14:55:27;;;;;;;2.67;1.42;;;;;;;;;;5087450;27;43632;-61
2022/11/23 14:58:04;;;;;;;3.05;1.33;;;;;;;;;;5098615;27;43928;-60
2022/11/23 15:00:35;;;;;;;2.78;1.30;;;;;;;;;;5098735;27;44390;-60
2022/11/23 15:03:08;;;;;;;3.00;1.50;;;;;;;;;;5101296;27;43412;-61
2022/11/23 15:05:58;;;;;;;3.63;1.30;;;;;;;;;;5084715;27;43598;-60
2022/11/23 15:08:36;;;;;;;2.27;1.00;;;;;;;;;;5095041;27;44119;-60
2022/11/23 15:11:14;;;;;;;1.65;1.10;;;;;;;;;;5097178;27;43898;-60
2022/11/23 15:13:51;;;;;;;3.60;1.40;;;;;;;;;;5108946;27;43460;-60
2022/11/23 15:16:21;;;;;;;2.90;1.35;;;;;;;;;;5103504;27;43531;-60
2022/11/23 15:18:49;;;;;;;2.47;1.25;;;;;;;;;;5107386;27;43891;-60
2022/11/23 15:21:19;;;;;;;2.13;1.20;;;;;;;;;;5096996;27;43860;-60
2022/11/23 15:23:55;;;;;;;1.77;1.20;;;;;;;;;;5107237;27;43544;-60
2022/11/23 15:26:24;;;;;;;2.55;1.40;;;;;;;;;;5103282;27;43467;-60
2022/11/23 15:29:31;;;;;;;2.15;1.20;;;;;;;;;;5105151;27;44036;-60
2022/11/23 15:32:00;;;;;;;2.97;1.30;;;;;;;;;;5108432;27;43451;-60
2022/11/23 15:34:48;;;;;;;2.25;1.10;;;;;;;;;;5105127;27;43444;-60